Kosho Maru No.8 — JD3884 — position and weather

sailwx.info

Track history (hours):
 
Tides and Currents Weather Stations Pressure Air Temp Water Temp Dewpoint Dewpoint Depression Visibility Wind Speed Wind Dir Waves Ship Positions

Kosho Maru No.8

Last reported at 2018-Jan-20 06:31 UTC. Time now 2018-Jan-20 13:12 UTC.
Position N 33°17' E 131°53'.

Length 72 m; draft 4.5 m.

Type: Cargo ship. MMSI: 431006563.

Date/timePositionNaut miles runAvg speedWind from/ knotsBaromVisibWave heightAir tempDewpointWater temp
2018-Jan-20 06:31N 33°17' E 131°53'010.9
2018-Jan-20 06:30N 33°16' E 131°53'1 2.5
2018-Jan-20 05:55N 33°15' E 131°53'0 0.0
2018-Jan-20 05:29N 33°15' E 131°53'0 0.0
2018-Jan-20 04:53N 33°15' E 131°53'0 0.0
2018-Jan-20 01:57N 33°15' E 131°53'0 0.0
2018-Jan-20 01:30N 33°15' E 131°53'0 0.0
2018-Jan-20 01:00N 33°15' E 131°53'0 0.0
2018-Jan-20 00:30N 33°15' E 131°53'0 0.0
2018-Jan-19 23:59N 33°15' E 131°53'0 0.0
2018-Jan-19 23:30N 33°15' E 131°53'0 0.0
2018-Jan-19 23:00N 33°15' E 131°53'0 0.0
2018-Jan-19 22:29N 33°15' E 131°53'0 0.2
2018-Jan-19 21:56N 33°15' E 131°52'3 6.7
2018-Jan-19 21:29N 33°17' E 131°50'711.2
2018-Jan-19 20:54N 33°21' E 131°43'1 3.6
2018-Jan-19 20:30N 33°22' E 131°42'0 0.0
2018-Jan-19 19:57N 33°22' E 131°42'0 0.0
2018-Jan-19 19:30N 33°22' E 131°42'0 0.0
2018-Jan-19 18:57N 33°22' E 131°42'0 0.0
2018-Jan-19 18:27N 33°22' E 131°42'0 0.0
2018-Jan-19 17:57N 33°22' E 131°42'0 0.0
2018-Jan-19 17:27N 33°22' E 131°42'0 0.0
2018-Jan-19 17:00N 33°22' E 131°42'0 0.0
2018-Jan-19 16:27N 33°22' E 131°42'0 0.0
2018-Jan-19 15:51N 33°22' E 131°42'0 0.0
2018-Jan-19 15:21N 33°22' E 131°42'0 0.0
2018-Jan-19 14:57N 33°22' E 131°42'0 0.1
2018-Jan-19 14:27N 33°22' E 131°42'0 0.0
2018-Jan-19 13:57N 33°22' E 131°42'0 0.0
2018-Jan-19 13:30N 33°22' E 131°42'0 0.1
2018-Jan-19 12:57N 33°22' E 131°42'0 0.0
2018-Jan-19 12:27N 33°22' E 131°42'0 0.0
2018-Jan-19 12:00N 33°22' E 131°42'0 0.0
2018-Jan-19 11:23N 33°22' E 131°42'6 9.6
2018-Jan-19 10:43N 33°27' E 131°47'310.8
2018-Jan-19 10:29N 33°30' E 131°47'610.6
2018-Jan-19 09:55N 33°36' E 131°47'510.9
2018-Jan-19 09:29N 33°39' E 131°43'610.6
2018-Jan-19 08:58N 33°42' E 131°38'511.1
2018-Jan-19 08:28N 33°44' E 131°32'611.9
2018-Jan-19 08:00N 33°46' E 131°26'612.1
2018-Jan-19 07:30N 33°49' E 131°19'612.2
2018-Jan-19 07:01N 33°51' E 131°12'510.1
2018-Jan-19 06:31N 33°56' E 131°14'1 1.8
2018-Jan-19 06:00N 33°57' E 131°14'0 0.0
2018-Jan-19 05:30N 33°57' E 131°14'0 0.0
2018-Jan-19 05:01N 33°57' E 131°14'0 0.0
2018-Jan-19 04:30N 33°57' E 131°14'0 0.0
2018-Jan-19 04:00N 33°57' E 131°14'0 0.0
2018-Jan-19 03:29N 33°57' E 131°14'0 0.0
2018-Jan-19 03:00N 33°57' E 131°14'0 0.0
2018-Jan-19 02:30N 33°57' E 131°14'0 0.0
2018-Jan-19 02:00N 33°57' E 131°14'0 0.0
2018-Jan-19 01:30N 33°57' E 131°14'0 0.0
2018-Jan-19 01:00N 33°57' E 131°14'0 0.0
2018-Jan-19 00:30N 33°57' E 131°14'0 0.0
2018-Jan-19 00:01N 33°57' E 131°14'0 0.0
2018-Jan-18 23:30N 33°57' E 131°14'3 5.3
2018-Jan-18 23:00N 33°54' E 131°13'0 0.4
2018-Jan-18 22:28N 33°54' E 131°13'0 0.0
2018-Jan-18 21:58N 33°54' E 131°13'0 0.0
2018-Jan-18 21:25N 33°54' E 131°13'0 0.0
2018-Jan-18 20:55N 33°54' E 131°13'0 0.0
2018-Jan-18 20:25N 33°54' E 131°13'0 0.0
2018-Jan-18 19:58N 33°54' E 131°13'0 0.0
2018-Jan-18 19:28N 33°54' E 131°13'0 0.1
2018-Jan-18 18:55N 33°54' E 131°13'0 0.0
2018-Jan-18 18:28N 33°54' E 131°13'2 5.4
2018-Jan-18 18:00N 33°52' E 131°14'510.5
2018-Jan-18 17:30N 33°51' E 131°20'510.9
2018-Jan-18 17:00N 33°50' E 131°26'510.7
2018-Jan-18 16:30N 33°49' E 131°33'510.6
2018-Jan-18 16:00N 33°48' E 131°39'510.8
2018-Jan-18 15:30N 33°47' E 131°45'511.0
2018-Jan-18 15:00N 33°46' E 131°52'510.9
2018-Jan-18 14:30N 33°45' E 131°58'611.1
2018-Jan-18 13:56N 33°47' E 132°06'511.3
2018-Jan-18 13:30N 33°50' E 132°11'611.0
2018-Jan-18 12:59N 33°50' E 132°18'710.0
2018-Jan-18 12:20N 33°52' E 132°25'410.4
2018-Jan-18 12:00N 33°55' E 132°28'5 9.6
2018-Jan-18 11:28N 33°58' E 132°33'4 9.5
2018-Jan-18 10:59N 34°01' E 132°37'  
Track history (hours):
 
Tides and Currents Weather Stations Pressure Air Temp Water Temp Dewpoint Dewpoint Depression Visibility Wind Speed Wind Dir Waves Ship Positions

Kosho Maru No.8

Last reported at 2018-Jan-20 06:31 UTC. Time now 2018-Jan-20 13:12 UTC.
Position N 33°17' E 131°53'.

Length 72 m; draft 4.5 m.

Type: Cargo ship. MMSI: 431006563.

Date/timePositionNaut miles runAvg speedWind from/ knotsBaromVisibWave heightAir tempDewpointWater temp
2018-Jan-20 06:31N 33°17' E 131°53'010.9
2018-Jan-20 06:30N 33°16' E 131°53'1 2.5
2018-Jan-20 05:55N 33°15' E 131°53'0 0.0
2018-Jan-20 05:29N 33°15' E 131°53'0 0.0
2018-Jan-20 04:53N 33°15' E 131°53'0 0.0
2018-Jan-20 01:57N 33°15' E 131°53'0 0.0
2018-Jan-20 01:30N 33°15' E 131°53'0 0.0
2018-Jan-20 01:00N 33°15' E 131°53'0 0.0
2018-Jan-20 00:30N 33°15' E 131°53'0 0.0
2018-Jan-19 23:59N 33°15' E 131°53'0 0.0
2018-Jan-19 23:30N 33°15' E 131°53'0 0.0
2018-Jan-19 23:00N 33°15' E 131°53'0 0.0
2018-Jan-19 22:29N 33°15' E 131°53'0 0.2
2018-Jan-19 21:56N 33°15' E 131°52'3 6.7
2018-Jan-19 21:29N 33°17' E 131°50'711.2
2018-Jan-19 20:54N 33°21' E 131°43'1 3.6
2018-Jan-19 20:30N 33°22' E 131°42'0 0.0
2018-Jan-19 19:57N 33°22' E 131°42'0 0.0
2018-Jan-19 19:30N 33°22' E 131°42'0 0.0
2018-Jan-19 18:57N 33°22' E 131°42'0 0.0
2018-Jan-19 18:27N 33°22' E 131°42'0 0.0
2018-Jan-19 17:57N 33°22' E 131°42'0 0.0
2018-Jan-19 17:27N 33°22' E 131°42'0 0.0
2018-Jan-19 17:00N 33°22' E 131°42'0 0.0
2018-Jan-19 16:27N 33°22' E 131°42'0 0.0
2018-Jan-19 15:51N 33°22' E 131°42'0 0.0
2018-Jan-19 15:21N 33°22' E 131°42'0 0.0
2018-Jan-19 14:57N 33°22' E 131°42'0 0.1
2018-Jan-19 14:27N 33°22' E 131°42'0 0.0
2018-Jan-19 13:57N 33°22' E 131°42'0 0.0
2018-Jan-19 13:30N 33°22' E 131°42'0 0.1
2018-Jan-19 12:57N 33°22' E 131°42'0 0.0
2018-Jan-19 12:27N 33°22' E 131°42'0 0.0
2018-Jan-19 12:00N 33°22' E 131°42'0 0.0
2018-Jan-19 11:23N 33°22' E 131°42'6 9.6
2018-Jan-19 10:43N 33°27' E 131°47'310.8
2018-Jan-19 10:29N 33°30' E 131°47'610.6
2018-Jan-19 09:55N 33°36' E 131°47'510.9
2018-Jan-19 09:29N 33°39' E 131°43'610.6
2018-Jan-19 08:58N 33°42' E 131°38'511.1
2018-Jan-19 08:28N 33°44' E 131°32'611.9
2018-Jan-19 08:00N 33°46' E 131°26'612.1
2018-Jan-19 07:30N 33°49' E 131°19'612.2
2018-Jan-19 07:01N 33°51' E 131°12'510.1
2018-Jan-19 06:31N 33°56' E 131°14'1 1.8
2018-Jan-19 06:00N 33°57' E 131°14'0 0.0
2018-Jan-19 05:30N 33°57' E 131°14'0 0.0
2018-Jan-19 05:01N 33°57' E 131°14'0 0.0
2018-Jan-19 04:30N 33°57' E 131°14'0 0.0
2018-Jan-19 04:00N 33°57' E 131°14'0 0.0
2018-Jan-19 03:29N 33°57' E 131°14'0 0.0
2018-Jan-19 03:00N 33°57' E 131°14'0 0.0
2018-Jan-19 02:30N 33°57' E 131°14'0 0.0
2018-Jan-19 02:00N 33°57' E 131°14'0 0.0
2018-Jan-19 01:30N 33°57' E 131°14'0 0.0
2018-Jan-19 01:00N 33°57' E 131°14'0 0.0
2018-Jan-19 00:30N 33°57' E 131°14'0 0.0
2018-Jan-19 00:01N 33°57' E 131°14'0 0.0
2018-Jan-18 23:30N 33°57' E 131°14'3 5.3
2018-Jan-18 23:00N 33°54' E 131°13'0 0.4
2018-Jan-18 22:28N 33°54' E 131°13'0 0.0
2018-Jan-18 21:58N 33°54' E 131°13'0 0.0
2018-Jan-18 21:25N 33°54' E 131°13'0 0.0
2018-Jan-18 20:55N 33°54' E 131°13'0 0.0
2018-Jan-18 20:25N 33°54' E 131°13'0 0.0
2018-Jan-18 19:58N 33°54' E 131°13'0 0.0
2018-Jan-18 19:28N 33°54' E 131°13'0 0.1
2018-Jan-18 18:55N 33°54' E 131°13'0 0.0
2018-Jan-18 18:28N 33°54' E 131°13'2 5.4
2018-Jan-18 18:00N 33°52' E 131°14'510.5
2018-Jan-18 17:30N 33°51' E 131°20'510.9
2018-Jan-18 17:00N 33°50' E 131°26'510.7
2018-Jan-18 16:30N 33°49' E 131°33'510.6
2018-Jan-18 16:00N 33°48' E 131°39'510.8
2018-Jan-18 15:30N 33°47' E 131°45'511.0
2018-Jan-18 15:00N 33°46' E 131°52'510.9
2018-Jan-18 14:30N 33°45' E 131°58'611.1
2018-Jan-18 13:56N 33°47' E 132°06'511.3
2018-Jan-18 13:30N 33°50' E 132°11'611.0
2018-Jan-18 12:59N 33°50' E 132°18'710.0
2018-Jan-18 12:20N 33°52' E 132°25'410.4
2018-Jan-18 12:00N 33°55' E 132°28'5 9.6
2018-Jan-18 11:28N 33°58' E 132°33'4 9.5
2018-Jan-18 10:59N 34°01' E 132°37'  

Dump ship's entire track history